Hovedside
METAR-TAF:

METAR-TAF

Lufthavner :

Jeddah, Saudi-Arabia

breddegrad: 21-42N, lengdegrad: 039-11E, høyde over havet: 15 m

Gjeldene værobservasjon

Denne rapporten ble laget for 44 minutter siden, klokken 08:00 UTC
Vind 7 kt fra Sør
Temperatur 33°C
Luftfuktighet 49%
Trykk 1011 hPa
Sikt 10 km eller mer
ingen skyer under 1500 m og ingen bygeskyer

METAR: OEJN 130800Z 18007KT CAVOK 33/21 Q1011 NOSIG

Tid: 11:44 (08:44 UTC)

Varsel

Denne rapporten ble laget for 3 timer og 44 minutter siden, klokken 05:00 UTC
Varsel gyldig fra 13. klokken 06 UTC til 14. klokken 12 UTC
Vind 15 kt fra Sørvest
Sikt 10 km eller mer
Få skyer i en høyde av 4000 ft
Midlertidig
fra 13. klokken 10 UTC til 13. klokken 22 UTC
Sikt: 3500 m
Få skyer i en høyde av 3500 ft, Bygeskyer.
Spredte skyer i en høyde av 4000 ft
støvdrev, torden, regn
Blir
fra 13. klokken 20 UTC til 13. klokken 22 UTC
Vind 10 kt fra Øst

TAF: OEJN 130500Z 1306/1412 22015KT 9999 FEW040 TEMPO 1310/1322 3500 BLDU TSRA FEW035CB SCT040 BECMG 1320/1322 09010KT

Værobservasjoner og værvarsel for over 4000 flyplasser (METAR- og TAF-rapporter).

Tilgjengelige stasjoner er representert av de røde og gule prikkene på kartet.

Hold musepekeren over prikken for å se navnet på stasjonen.

Klikk så for å se værobservasjoner og -varsler.

For å forandre kartet kan du klikke på den grønne knappen med svart kryss for å zoome inn, på den grønne knappen med strek for å zoome ut, eller på de grønne pilene for å se tilstøtende kart.


METAR-TAF: